sensor_id;sensor_type;location;lat;lon;timestamp;temperature;humidity
21387;DHT22;10854;45.922;6.716;2023-04-03T00:01:28;7.50;99.90
21387;DHT22;10854;45.922;6.716;2023-04-03T00:03:57;7.40;99.90
21387;DHT22;10854;45.922;6.716;2023-04-03T00:06:26;7.40;99.90
21387;DHT22;10854;45.922;6.716;2023-04-03T00:08:56;7.40;99.90
21387;DHT22;10854;45.922;6.716;2023-04-03T00:11:24;7.30;99.90
21387;DHT22;10854;45.922;6.716;2023-04-03T00:13:53;7.30;99.90
21387;DHT22;10854;45.922;6.716;2023-04-03T00:16:21;7.30;99.90
21387;DHT22;10854;45.922;6.716;2023-04-03T00:18:49;7.20;99.90
21387;DHT22;10854;45.922;6.716;2023-04-03T00:21:18;7.10;99.90
21387;DHT22;10854;45.922;6.716;2023-04-03T00:23:46;7.00;99.90
21387;DHT22;10854;45.922;6.716;2023-04-03T00:26:14;7.00;99.90
21387;DHT22;10854;45.922;6.716;2023-04-03T00:28:43;6.90;99.90
21387;DHT22;10854;45.922;6.716;2023-04-03T00:31:15;6.80;99.90
21387;DHT22;10854;45.922;6.716;2023-04-03T00:33:44;6.80;99.90
21387;DHT22;10854;45.922;6.716;2023-04-03T00:36:13;6.70;99.90
21387;DHT22;10854;45.922;6.716;2023-04-03T00:38:41;6.70;99.90
21387;DHT22;10854;45.922;6.716;2023-04-03T00:41:13;6.60;99.90
21387;DHT22;10854;45.922;6.716;2023-04-03T00:43:41;6.60;99.90
21387;DHT22;10854;45.922;6.716;2023-04-03T00:46:10;6.60;99.90
21387;DHT22;10854;45.922;6.716;2023-04-03T00:48:46;6.60;99.90
21387;DHT22;10854;45.922;6.716;2023-04-03T00:51:24;6.60;99.90
21387;DHT22;10854;45.922;6.716;2023-04-03T00:54:01;6.60;99.90
21387;DHT22;10854;45.922;6.716;2023-04-03T00:56:32;6.60;99.90
21387;DHT22;10854;45.922;6.716;2023-04-03T00:59:04;6.60;99.90
21387;DHT22;10854;45.922;6.716;2023-04-03T01:01:34;6.60;99.90
21387;DHT22;10854;45.922;6.716;2023-04-03T01:04:04;6.60;99.90
21387;DHT22;10854;45.922;6.716;2023-04-03T01:06:36;6.50;99.90
21387;DHT22;10854;45.922;6.716;2023-04-03T01:09:05;6.50;99.90
21387;DHT22;10854;45.922;6.716;2023-04-03T01:11:36;6.60;99.90
21387;DHT22;10854;45.922;6.716;2023-04-03T01:14:05;6.60;99.90
21387;DHT22;10854;45.922;6.716;2023-04-03T01:16:35;6.60;99.90
21387;DHT22;10854;45.922;6.716;2023-04-03T01:19:10;6.60;99.90
21387;DHT22;10854;45.922;6.716;2023-04-03T01:22:13;6.60;99.90
21387;DHT22;10854;45.922;6.716;2023-04-03T01:24:47;6.60;99.90
21387;DHT22;10854;45.922;6.716;2023-04-03T01:27:16;6.60;99.90
21387;DHT22;10854;45.922;6.716;2023-04-03T01:29:45;6.60;99.90
21387;DHT22;10854;45.922;6.716;2023-04-03T01:32:14;6.50;99.90
21387;DHT22;10854;45.922;6.716;2023-04-03T01:34:43;6.60;99.90
21387;DHT22;10854;45.922;6.716;2023-04-03T01:37:11;6.50;99.90
21387;DHT22;10854;45.922;6.716;2023-04-03T01:39:40;6.50;99.90
21387;DHT22;10854;45.922;6.716;2023-04-03T01:42:09;6.50;99.90
21387;DHT22;10854;45.922;6.716;2023-04-03T01:44:39;6.50;99.90
21387;DHT22;10854;45.922;6.716;2023-04-03T01:47:08;6.50;99.90
21387;DHT22;10854;45.922;6.716;2023-04-03T01:49:36;6.50;99.90
21387;DHT22;10854;45.922;6.716;2023-04-03T01:52:04;6.50;99.90
21387;DHT22;10854;45.922;6.716;2023-04-03T01:54:35;6.50;99.90
21387;DHT22;10854;45.922;6.716;2023-04-03T01:57:04;6.50;99.90
21387;DHT22;10854;45.922;6.716;2023-04-03T01:59:32;6.50;99.90
21387;DHT22;10854;45.922;6.716;2023-04-03T02:02:01;6.50;99.90
21387;DHT22;10854;45.922;6.716;2023-04-03T02:04:29;6.50;99.90
21387;DHT22;10854;45.922;6.716;2023-04-03T02:06:58;6.50;99.90
21387;DHT22;10854;45.922;6.716;2023-04-03T02:09:26;6.40;99.90
21387;DHT22;10854;45.922;6.716;2023-04-03T02:11:55;6.50;99.90
21387;DHT22;10854;45.922;6.716;2023-04-03T02:14:23;6.50;99.90
21387;DHT22;10854;45.922;6.716;2023-04-03T02:16:51;6.50;99.90
21387;DHT22;10854;45.922;6.716;2023-04-03T02:19:20;6.50;99.90
21387;DHT22;10854;45.922;6.716;2023-04-03T02:21:49;6.50;99.90
21387;DHT22;10854;45.922;6.716;2023-04-03T02:24:18;6.50;99.90
21387;DHT22;10854;45.922;6.716;2023-04-03T02:26:46;6.50;99.90
21387;DHT22;10854;45.922;6.716;2023-04-03T02:29:14;6.50;99.90
21387;DHT22;10854;45.922;6.716;2023-04-03T02:31:43;6.60;99.90
21387;DHT22;10854;45.922;6.716;2023-04-03T02:34:11;6.60;99.90
21387;DHT22;10854;45.922;6.716;2023-04-03T02:36:40;6.60;99.90
21387;DHT22;10854;45.922;6.716;2023-04-03T02:39:08;6.60;99.90
21387;DHT22;10854;45.922;6.716;2023-04-03T02:41:37;6.60;99.90
21387;DHT22;10854;45.922;6.716;2023-04-03T02:44:06;6.60;99.90
21387;DHT22;10854;45.922;6.716;2023-04-03T02:46:35;6.50;99.90
21387;DHT22;10854;45.922;6.716;2023-04-03T02:49:04;6.50;99.90
21387;DHT22;10854;45.922;6.716;2023-04-03T02:51:34;6.50;99.90
21387;DHT22;10854;45.922;6.716;2023-04-03T02:54:02;6.50;99.90
21387;DHT22;10854;45.922;6.716;2023-04-03T02:56:30;6.50;99.90
21387;DHT22;10854;45.922;6.716;2023-04-03T02:58:59;6.50;99.90
21387;DHT22;10854;45.922;6.716;2023-04-03T03:01:27;6.50;99.90
21387;DHT22;10854;45.922;6.716;2023-04-03T03:03:59;6.50;99.90
21387;DHT22;10854;45.922;6.716;2023-04-03T03:06:28;6.40;99.90
21387;DHT22;10854;45.922;6.716;2023-04-03T03:08:56;6.40;99.90
21387;DHT22;10854;45.922;6.716;2023-04-03T03:11:25;6.40;99.90
21387;DHT22;10854;45.922;6.716;2023-04-03T03:13:54;6.40;99.90
21387;DHT22;10854;45.922;6.716;2023-04-03T03:16:22;6.40;99.90
21387;DHT22;10854;45.922;6.716;2023-04-03T03:18:50;6.40;99.90
21387;DHT22;10854;45.922;6.716;2023-04-03T03:21:19;6.40;99.90
21387;DHT22;10854;45.922;6.716;2023-04-03T03:23:47;6.40;99.90
21387;DHT22;10854;45.922;6.716;2023-04-03T03:26:16;6.30;99.90
21387;DHT22;10854;45.922;6.716;2023-04-03T03:28:44;6.40;99.90
21387;DHT22;10854;45.922;6.716;2023-04-03T03:31:13;6.40;99.90
21387;DHT22;10854;45.922;6.716;2023-04-03T03:33:46;6.40;99.90
21387;DHT22;10854;45.922;6.716;2023-04-03T03:36:17;6.40;99.90
21387;DHT22;10854;45.922;6.716;2023-04-03T03:38:45;6.40;99.90
21387;DHT22;10854;45.922;6.716;2023-04-03T03:41:14;6.40;99.90
21387;DHT22;10854;45.922;6.716;2023-04-03T03:43:42;6.40;99.90
21387;DHT22;10854;45.922;6.716;2023-04-03T03:46:11;6.40;99.90
21387;DHT22;10854;45.922;6.716;2023-04-03T03:48:39;6.40;99.90
21387;DHT22;10854;45.922;6.716;2023-04-03T03:51:08;6.40;99.90
21387;DHT22;10854;45.922;6.716;2023-04-03T03:53:37;6.40;99.90
21387;DHT22;10854;45.922;6.716;2023-04-03T03:56:08;6.40;99.90
21387;DHT22;10854;45.922;6.716;2023-04-03T03:58:38;6.40;99.90
21387;DHT22;10854;45.922;6.716;2023-04-03T04:01:07;6.40;99.90
21387;DHT22;10854;45.922;6.716;2023-04-03T04:03:35;6.40;99.90
21387;DHT22;10854;45.922;6.716;2023-04-03T04:06:06;6.40;99.90
21387;DHT22;10854;45.922;6.716;2023-04-03T04:08:35;6.40;99.90
21387;DHT22;10854;45.922;6.716;2023-04-03T04:11:03;6.40;99.90
21387;DHT22;10854;45.922;6.716;2023-04-03T04:13:31;6.40;99.90
21387;DHT22;10854;45.922;6.716;2023-04-03T04:16:00;6.40;99.90
21387;DHT22;10854;45.922;6.716;2023-04-03T04:18:29;6.50;99.90
21387;DHT22;10854;45.922;6.716;2023-04-03T04:20:58;6.50;99.90
21387;DHT22;10854;45.922;6.716;2023-04-03T04:23:26;6.50;99.90
21387;DHT22;10854;45.922;6.716;2023-04-03T04:25:54;6.50;99.90
21387;DHT22;10854;45.922;6.716;2023-04-03T04:28:22;6.50;99.90
21387;DHT22;10854;45.922;6.716;2023-04-03T04:30:51;6.50;99.90
21387;DHT22;10854;45.922;6.716;2023-04-03T04:33:19;6.50;99.90
21387;DHT22;10854;45.922;6.716;2023-04-03T04:35:51;6.50;99.90
21387;DHT22;10854;45.922;6.716;2023-04-03T04:38:21;6.50;99.90
21387;DHT22;10854;45.922;6.716;2023-04-03T04:40:49;6.50;99.90
21387;DHT22;10854;45.922;6.716;2023-04-03T04:43:18;6.50;99.90
21387;DHT22;10854;45.922;6.716;2023-04-03T04:45:46;6.40;99.90
21387;DHT22;10854;45.922;6.716;2023-04-03T04:48:15;6.40;99.90
21387;DHT22;10854;45.922;6.716;2023-04-03T04:50:43;6.50;99.90
21387;DHT22;10854;45.922;6.716;2023-04-03T04:53:12;6.50;99.90
21387;DHT22;10854;45.922;6.716;2023-04-03T04:55:41;6.50;99.90
21387;DHT22;10854;45.922;6.716;2023-04-03T04:58:10;6.50;99.90
21387;DHT22;10854;45.922;6.716;2023-04-03T05:00:39;6.50;99.90
21387;DHT22;10854;45.922;6.716;2023-04-03T05:03:07;6.50;99.90
21387;DHT22;10854;45.922;6.716;2023-04-03T05:05:36;6.50;99.90
21387;DHT22;10854;45.922;6.716;2023-04-03T05:08:05;6.50;99.90
21387;DHT22;10854;45.922;6.716;2023-04-03T05:10:36;6.50;99.90
21387;DHT22;10854;45.922;6.716;2023-04-03T05:13:04;6.50;99.90
21387;DHT22;10854;45.922;6.716;2023-04-03T05:15:32;6.50;99.90
21387;DHT22;10854;45.922;6.716;2023-04-03T05:18:01;6.50;99.90
21387;DHT22;10854;45.922;6.716;2023-04-03T05:20:29;6.50;99.90
21387;DHT22;10854;45.922;6.716;2023-04-03T05:22:59;6.40;99.90
21387;DHT22;10854;45.922;6.716;2023-04-03T05:25:27;6.40;99.90
21387;DHT22;10854;45.922;6.716;2023-04-03T05:27:56;6.30;99.90
21387;DHT22;10854;45.922;6.716;2023-04-03T05:30:24;6.30;99.90
21387;DHT22;10854;45.922;6.716;2023-04-03T05:32:53;6.30;99.90
21387;DHT22;10854;45.922;6.716;2023-04-03T05:35:21;6.30;99.90
21387;DHT22;10854;45.922;6.716;2023-04-03T05:37:49;6.30;99.90
21387;DHT22;10854;45.922;6.716;2023-04-03T05:40:18;6.30;99.90
21387;DHT22;10854;45.922;6.716;2023-04-03T05:42:46;6.30;99.90
21387;DHT22;10854;45.922;6.716;2023-04-03T05:45:16;6.40;99.90
21387;DHT22;10854;45.922;6.716;2023-04-03T05:47:44;6.30;99.90
21387;DHT22;10854;45.922;6.716;2023-04-03T05:50:13;6.40;99.90
21387;DHT22;10854;45.922;6.716;2023-04-03T05:52:44;6.40;99.90
21387;DHT22;10854;45.922;6.716;2023-04-03T05:55:14;6.40;99.90
21387;DHT22;10854;45.922;6.716;2023-04-03T05:57:42;6.40;99.90
21387;DHT22;10854;45.922;6.716;2023-04-03T06:00:13;6.50;99.90
21387;DHT22;10854;45.922;6.716;2023-04-03T06:02:46;6.50;99.90
21387;DHT22;10854;45.922;6.716;2023-04-03T06:05:14;6.50;99.90
21387;DHT22;10854;45.922;6.716;2023-04-03T06:07:43;6.50;99.90
21387;DHT22;10854;45.922;6.716;2023-04-03T06:10:12;6.60;99.90
21387;DHT22;10854;45.922;6.716;2023-04-03T06:12:42;6.60;99.90
21387;DHT22;10854;45.922;6.716;2023-04-03T06:15:11;6.70;99.90
21387;DHT22;10854;45.922;6.716;2023-04-03T06:17:39;6.70;99.90
21387;DHT22;10854;45.922;6.716;2023-04-03T06:20:08;6.70;99.90
21387;DHT22;10854;45.922;6.716;2023-04-03T06:22:37;6.80;99.90
21387;DHT22;10854;45.922;6.716;2023-04-03T06:25:06;6.70;99.90
21387;DHT22;10854;45.922;6.716;2023-04-03T06:27:34;6.80;99.90
21387;DHT22;10854;45.922;6.716;2023-04-03T06:30:07;6.80;99.90
21387;DHT22;10854;45.922;6.716;2023-04-03T06:32:37;6.90;99.90
21387;DHT22;10854;45.922;6.716;2023-04-03T06:35:06;7.00;99.90
21387;DHT22;10854;45.922;6.716;2023-04-03T06:37:35;7.10;99.90
21387;DHT22;10854;45.922;6.716;2023-04-03T06:40:04;7.20;99.90
21387;DHT22;10854;45.922;6.716;2023-04-03T06:42:32;7.30;99.90
21387;DHT22;10854;45.922;6.716;2023-04-03T06:45:04;7.50;99.90
21387;DHT22;10854;45.922;6.716;2023-04-03T06:47:33;7.60;99.90
21387;DHT22;10854;45.922;6.716;2023-04-03T06:50:02;7.70;99.90
21387;DHT22;10854;45.922;6.716;2023-04-03T06:52:31;7.80;99.90
21387;DHT22;10854;45.922;6.716;2023-04-03T06:55:03;7.80;99.90
21387;DHT22;10854;45.922;6.716;2023-04-03T06:57:31;7.80;99.90
21387;DHT22;10854;45.922;6.716;2023-04-03T07:00:00;7.80;99.90
21387;DHT22;10854;45.922;6.716;2023-04-03T07:02:28;7.80;99.90
21387;DHT22;10854;45.922;6.716;2023-04-03T07:04:57;7.80;99.90
21387;DHT22;10854;45.922;6.716;2023-04-03T07:07:25;7.80;99.90
21387;DHT22;10854;45.922;6.716;2023-04-03T07:09:54;7.90;99.90
21387;DHT22;10854;45.922;6.716;2023-04-03T07:12:22;7.80;99.90
21387;DHT22;10854;45.922;6.716;2023-04-03T07:14:51;7.80;99.90
21387;DHT22;10854;45.922;6.716;2023-04-03T07:17:19;7.90;99.90
21387;DHT22;10854;45.922;6.716;2023-04-03T07:19:48;7.90;99.90
21387;DHT22;10854;45.922;6.716;2023-04-03T07:22:17;8.00;99.90
21387;DHT22;10854;45.922;6.716;2023-04-03T07:24:45;8.10;99.90
21387;DHT22;10854;45.922;6.716;2023-04-03T07:27:14;8.20;99.90
21387;DHT22;10854;45.922;6.716;2023-04-03T07:29:42;8.40;99.90
21387;DHT22;10854;45.922;6.716;2023-04-03T07:32:11;8.60;99.90
21387;DHT22;10854;45.922;6.716;2023-04-03T07:34:40;8.80;99.90
21387;DHT22;10854;45.922;6.716;2023-04-03T07:37:09;8.90;99.90
21387;DHT22;10854;45.922;6.716;2023-04-03T07:39:38;9.00;99.90
21387;DHT22;10854;45.922;6.716;2023-04-03T07:42:06;9.10;99.90
21387;DHT22;10854;45.922;6.716;2023-04-03T07:44:36;9.20;99.90
21387;DHT22;10854;45.922;6.716;2023-04-03T07:47:04;9.20;99.90
21387;DHT22;10854;45.922;6.716;2023-04-03T07:49:33;9.40;99.90
21387;DHT22;10854;45.922;6.716;2023-04-03T07:52:03;9.50;99.90
21387;DHT22;10854;45.922;6.716;2023-04-03T07:54:32;9.60;99.90
21387;DHT22;10854;45.922;6.716;2023-04-03T07:57:01;9.70;99.90
21387;DHT22;10854;45.922;6.716;2023-04-03T07:59:30;9.70;99.90
21387;DHT22;10854;45.922;6.716;2023-04-03T08:01:58;9.80;99.90
21387;DHT22;10854;45.922;6.716;2023-04-03T08:04:27;9.90;99.90
21387;DHT22;10854;45.922;6.716;2023-04-03T08:07:02;10.10;99.90
21387;DHT22;10854;45.922;6.716;2023-04-03T08:09:30;10.20;99.90
21387;DHT22;10854;45.922;6.716;2023-04-03T08:11:59;10.30;99.90
21387;DHT22;10854;45.922;6.716;2023-04-03T08:14:31;10.30;99.90
21387;DHT22;10854;45.922;6.716;2023-04-03T08:16:59;10.30;99.90
21387;DHT22;10854;45.922;6.716;2023-04-03T08:19:28;10.30;99.90
21387;DHT22;10854;45.922;6.716;2023-04-03T08:21:56;10.40;99.90
21387;DHT22;10854;45.922;6.716;2023-04-03T08:24:26;10.40;99.90
21387;DHT22;10854;45.922;6.716;2023-04-03T08:26:55;10.50;99.90
21387;DHT22;10854;45.922;6.716;2023-04-03T08:29:24;10.60;99.90
21387;DHT22;10854;45.922;6.716;2023-04-03T08:31:52;10.80;99.90
21387;DHT22;10854;45.922;6.716;2023-04-03T08:34:21;10.90;99.10
21387;DHT22;10854;45.922;6.716;2023-04-03T08:36:49;11.00;98.60
21387;DHT22;10854;45.922;6.716;2023-04-03T08:39:17;11.10;98.80
21387;DHT22;10854;45.922;6.716;2023-04-03T08:41:47;11.20;98.80
21387;DHT22;10854;45.922;6.716;2023-04-03T08:44:25;11.30;97.20
21387;DHT22;10854;45.922;6.716;2023-04-03T08:47:21;11.30;95.30
21387;DHT22;10854;45.922;6.716;2023-04-03T08:49:59;11.40;94.10
21387;DHT22;10854;45.922;6.716;2023-04-03T08:52:55;11.50;94.00
21387;DHT22;10854;45.922;6.716;2023-04-03T08:55:40;11.60;93.90
21387;DHT22;10854;45.922;6.716;2023-04-03T08:58:26;11.80;93.90
21387;DHT22;10854;45.922;6.716;2023-04-03T09:01:33;12.10;92.80
21387;DHT22;10854;45.922;6.716;2023-04-03T09:04:10;12.40;92.70
21387;DHT22;10854;45.922;6.716;2023-04-03T09:06:44;12.70;91.90
21387;DHT22;10854;45.922;6.716;2023-04-03T09:09:25;12.90;90.50
21387;DHT22;10854;45.922;6.716;2023-04-03T09:20:45;14.30;82.90
21387;DHT22;10854;45.922;6.716;2023-04-03T09:23:29;15.00;81.50
21387;DHT22;10854;45.922;6.716;2023-04-03T09:26:04;15.90;78.90
21387;DHT22;10854;45.922;6.716;2023-04-03T09:28:39;16.50;73.40
21387;DHT22;10854;45.922;6.716;2023-04-03T09:31:25;16.90;69.20
21387;DHT22;10854;45.922;6.716;2023-04-03T09:34:02;17.10;67.30
21387;DHT22;10854;45.922;6.716;2023-04-03T09:36:58;17.30;66.80
21387;DHT22;10854;45.922;6.716;2023-04-03T09:39:29;17.70;64.90
21387;DHT22;10854;45.922;6.716;2023-04-03T09:42:11;17.50;63.00
21387;DHT22;10854;45.922;6.716;2023-04-03T09:44:59;17.60;63.60
21387;DHT22;10854;45.922;6.716;2023-04-03T09:47:31;17.80;61.60
21387;DHT22;10854;45.922;6.716;2023-04-03T09:52:44;17.40;60.00
21387;DHT22;10854;45.922;6.716;2023-04-03T09:55:20;17.50;60.40
21387;DHT22;10854;45.922;6.716;2023-04-03T09:58:02;17.80;60.60
21387;DHT22;10854;45.922;6.716;2023-04-03T10:00:33;18.20;59.20
21387;DHT22;10854;45.922;6.716;2023-04-03T10:03:03;18.60;57.80
21387;DHT22;10854;45.922;6.716;2023-04-03T10:05:35;19.00;57.80
21387;DHT22;10854;45.922;6.716;2023-04-03T10:10:43;19.90;55.30
21387;DHT22;10854;45.922;6.716;2023-04-03T10:13:18;20.10;55.50
21387;DHT22;10854;45.922;6.716;2023-04-03T10:15:54;20.40;55.70
21387;DHT22;10854;45.922;6.716;2023-04-03T10:18:46;20.50;53.20
21387;DHT22;10854;45.922;6.716;2023-04-03T10:24:53;20.90;52.70
21387;DHT22;10854;45.922;6.716;2023-04-03T10:33:30;21.60;48.90
21387;DHT22;10854;45.922;6.716;2023-04-03T10:36:45;20.90;49.30
21387;DHT22;10854;45.922;6.716;2023-04-03T10:39:23;20.60;51.50
21387;DHT22;10854;45.922;6.716;2023-04-03T10:41:59;20.50;52.50
21387;DHT22;10854;45.922;6.716;2023-04-03T10:45:08;20.50;52.70
21387;DHT22;10854;45.922;6.716;2023-04-03T10:53:45;21.60;48.50
21387;DHT22;10854;45.922;6.716;2023-04-03T10:56:40;21.30;48.30
21387;DHT22;10854;45.922;6.716;2023-04-03T10:59:26;21.10;48.80
21387;DHT22;10854;45.922;6.716;2023-04-03T11:02:00;21.20;48.20
21387;DHT22;10854;45.922;6.716;2023-04-03T11:04:36;21.20;47.30
21387;DHT22;10854;45.922;6.716;2023-04-03T11:07:28;21.00;48.00
21387;DHT22;10854;45.922;6.716;2023-04-03T11:10:03;20.70;48.00
21387;DHT22;10854;45.922;6.716;2023-04-03T11:12:48;20.40;48.00
21387;DHT22;10854;45.922;6.716;2023-04-03T11:15:20;20.40;48.20
21387;DHT22;10854;45.922;6.716;2023-04-03T11:17:54;20.40;47.60
21387;DHT22;10854;45.922;6.716;2023-04-03T11:20:30;20.10;48.50
21387;DHT22;10854;45.922;6.716;2023-04-03T11:23:06;19.90;48.10
21387;DHT22;10854;45.922;6.716;2023-04-03T11:25:36;19.50;49.20
21387;DHT22;10854;45.922;6.716;2023-04-03T11:28:12;19.00;48.80
21387;DHT22;10854;45.922;6.716;2023-04-03T11:30:50;18.50;49.60
21387;DHT22;10854;45.922;6.716;2023-04-03T11:36:43;18.40;51.10
21387;DHT22;10854;45.922;6.716;2023-04-03T11:39:21;17.80;51.40
21387;DHT22;10854;45.922;6.716;2023-04-03T11:41:51;17.70;51.90
21387;DHT22;10854;45.922;6.716;2023-04-03T11:44:29;18.10;52.80
21387;DHT22;10854;45.922;6.716;2023-04-03T11:47:00;18.30;52.00
21387;DHT22;10854;45.922;6.716;2023-04-03T11:49:57;18.10;51.30
21387;DHT22;10854;45.922;6.716;2023-04-03T12:03:31;20.30;48.60
21387;DHT22;10854;45.922;6.716;2023-04-03T12:08:46;20.00;48.00
21387;DHT22;10854;45.922;6.716;2023-04-03T12:16:30;19.70;48.70
21387;DHT22;10854;45.922;6.716;2023-04-03T12:26:51;19.40;47.30
21387;DHT22;10854;45.922;6.716;2023-04-03T12:35:20;19.00;48.10
21387;DHT22;10854;45.922;6.716;2023-04-03T12:44:17;20.20;46.50
21387;DHT22;10854;45.922;6.716;2023-04-03T12:46:52;20.10;45.60
21387;DHT22;10854;45.922;6.716;2023-04-03T12:51:58;20.00;45.00
21387;DHT22;10854;45.922;6.716;2023-04-03T12:54:39;19.90;45.00
21387;DHT22;10854;45.922;6.716;2023-04-03T12:59:48;20.30;45.20
21387;DHT22;10854;45.922;6.716;2023-04-03T13:02:26;20.60;45.80
21387;DHT22;10854;45.922;6.716;2023-04-03T13:05:08;20.80;43.90
21387;DHT22;10854;45.922;6.716;2023-04-03T13:07:43;20.50;44.10
21387;DHT22;10854;45.922;6.716;2023-04-03T13:10:17;20.40;45.30
21387;DHT22;10854;45.922;6.716;2023-04-03T13:12:55;20.30;46.30
21387;DHT22;10854;45.922;6.716;2023-04-03T13:15:27;20.30;48.70
21387;DHT22;10854;45.922;6.716;2023-04-03T13:17:57;19.80;48.60
21387;DHT22;10854;45.922;6.716;2023-04-03T13:20:31;19.50;48.60
21387;DHT22;10854;45.922;6.716;2023-04-03T13:23:05;19.50;50.30
21387;DHT22;10854;45.922;6.716;2023-04-03T13:25:56;19.40;50.30
21387;DHT22;10854;45.922;6.716;2023-04-03T13:28:29;19.50;50.40
21387;DHT22;10854;45.922;6.716;2023-04-03T13:33:35;19.50;50.70
21387;DHT22;10854;45.922;6.716;2023-04-03T13:36:21;19.60;51.10
21387;DHT22;10854;45.922;6.716;2023-04-03T13:39:03;19.90;49.40
21387;DHT22;10854;45.922;6.716;2023-04-03T13:41:35;19.90;49.80
21387;DHT22;10854;45.922;6.716;2023-04-03T13:47:01;19.90;49.70
21387;DHT22;10854;45.922;6.716;2023-04-03T13:49:45;19.90;49.10
21387;DHT22;10854;45.922;6.716;2023-04-03T13:54:59;19.20;47.00
21387;DHT22;10854;45.922;6.716;2023-04-03T13:57:29;19.10;49.10
21387;DHT22;10854;45.922;6.716;2023-04-03T13:59:58;18.90;48.30
21387;DHT22;10854;45.922;6.716;2023-04-03T14:02:32;18.70;50.80
21387;DHT22;10854;45.922;6.716;2023-04-03T14:05:03;18.50;51.10
21387;DHT22;10854;45.922;6.716;2023-04-03T14:07:34;18.40;50.40
21387;DHT22;10854;45.922;6.716;2023-04-03T14:10:03;18.50;50.60
21387;DHT22;10854;45.922;6.716;2023-04-03T14:12:33;18.50;50.10
21387;DHT22;10854;45.922;6.716;2023-04-03T14:15:15;18.30;49.60
21387;DHT22;10854;45.922;6.716;2023-04-03T14:17:45;18.20;50.10
21387;DHT22;10854;45.922;6.716;2023-04-03T14:20:19;18.30;50.00
21387;DHT22;10854;45.922;6.716;2023-04-03T14:22:49;18.70;50.30
21387;DHT22;10854;45.922;6.716;2023-04-03T14:25:19;19.00;49.20
21387;DHT22;10854;45.922;6.716;2023-04-03T14:27:49;19.10;48.10
21387;DHT22;10854;45.922;6.716;2023-04-03T14:32:54;19.80;48.00
21387;DHT22;10854;45.922;6.716;2023-04-03T14:35:23;19.80;48.60
21387;DHT22;10854;45.922;6.716;2023-04-03T14:37:54;19.60;49.30
21387;DHT22;10854;45.922;6.716;2023-04-03T14:40:26;19.40;47.70
21387;DHT22;10854;45.922;6.716;2023-04-03T14:42:55;19.50;47.10
21387;DHT22;10854;45.922;6.716;2023-04-03T14:45:25;19.70;47.90
21387;DHT22;10854;45.922;6.716;2023-04-03T14:47:55;19.50;49.50
21387;DHT22;10854;45.922;6.716;2023-04-03T14:50:26;19.30;49.90
21387;DHT22;10854;45.922;6.716;2023-04-03T14:52:58;18.90;50.10
21387;DHT22;10854;45.922;6.716;2023-04-03T14:55:29;18.40;50.90
21387;DHT22;10854;45.922;6.716;2023-04-03T14:57:57;18.10;51.30
21387;DHT22;10854;45.922;6.716;2023-04-03T15:00:26;18.00;51.10
21387;DHT22;10854;45.922;6.716;2023-04-03T15:02:54;17.80;52.60
21387;DHT22;10854;45.922;6.716;2023-04-03T15:05:23;17.70;53.10
21387;DHT22;10854;45.922;6.716;2023-04-03T15:07:55;17.50;52.50
21387;DHT22;10854;45.922;6.716;2023-04-03T15:10:27;17.30;51.10
21387;DHT22;10854;45.922;6.716;2023-04-03T15:12:56;17.00;54.20
21387;DHT22;10854;45.922;6.716;2023-04-03T15:15:28;16.60;54.80
21387;DHT22;10854;45.922;6.716;2023-04-03T15:17:58;16.10;56.00
21387;DHT22;10854;45.922;6.716;2023-04-03T15:20:27;15.80;56.00
21387;DHT22;10854;45.922;6.716;2023-04-03T15:23:00;15.60;56.50
21387;DHT22;10854;45.922;6.716;2023-04-03T15:25:29;15.30;57.10
21387;DHT22;10854;45.922;6.716;2023-04-03T15:27:58;15.10;57.40
21387;DHT22;10854;45.922;6.716;2023-04-03T15:30:26;15.10;57.90
21387;DHT22;10854;45.922;6.716;2023-04-03T15:32:57;15.10;57.70
21387;DHT22;10854;45.922;6.716;2023-04-03T15:35:25;15.30;58.20
21387;DHT22;10854;45.922;6.716;2023-04-03T15:37:54;15.30;57.80
21387;DHT22;10854;45.922;6.716;2023-04-03T15:40:22;15.00;57.60
21387;DHT22;10854;45.922;6.716;2023-04-03T15:42:50;14.70;57.90
21387;DHT22;10854;45.922;6.716;2023-04-03T15:45:19;14.40;58.90
21387;DHT22;10854;45.922;6.716;2023-04-03T15:47:49;14.30;59.30
21387;DHT22;10854;45.922;6.716;2023-04-03T15:50:18;14.30;58.80
21387;DHT22;10854;45.922;6.716;2023-04-03T15:52:46;14.10;58.60
21387;DHT22;10854;45.922;6.716;2023-04-03T15:55:14;13.80;59.00
21387;DHT22;10854;45.922;6.716;2023-04-03T15:57:43;13.50;60.10
21387;DHT22;10854;45.922;6.716;2023-04-03T16:00:12;13.30;60.80
21387;DHT22;10854;45.922;6.716;2023-04-03T16:02:42;13.10;61.20
21387;DHT22;10854;45.922;6.716;2023-04-03T16:05:13;13.00;61.90
21387;DHT22;10854;45.922;6.716;2023-04-03T16:07:44;12.90;62.00
21387;DHT22;10854;45.922;6.716;2023-04-03T16:10:14;12.80;61.20
21387;DHT22;10854;45.922;6.716;2023-04-03T16:12:44;12.80;62.50
21387;DHT22;10854;45.922;6.716;2023-04-03T16:15:13;12.90;62.70
21387;DHT22;10854;45.922;6.716;2023-04-03T16:17:42;13.30;61.60
21387;DHT22;10854;45.922;6.716;2023-04-03T16:20:12;13.80;60.00
21387;DHT22;10854;45.922;6.716;2023-04-03T16:22:41;14.10;59.00
21387;DHT22;10854;45.922;6.716;2023-04-03T16:25:11;14.30;58.40
21387;DHT22;10854;45.922;6.716;2023-04-03T16:27:39;14.50;58.20
21387;DHT22;10854;45.922;6.716;2023-04-03T16:30:09;14.70;57.60
21387;DHT22;10854;45.922;6.716;2023-04-03T16:32:38;14.80;57.20
21387;DHT22;10854;45.922;6.716;2023-04-03T16:35:08;14.90;57.20
21387;DHT22;10854;45.922;6.716;2023-04-03T16:37:39;14.80;56.70
21387;DHT22;10854;45.922;6.716;2023-04-03T16:40:09;14.80;56.70
21387;DHT22;10854;45.922;6.716;2023-04-03T16:42:40;14.70;56.60
21387;DHT22;10854;45.922;6.716;2023-04-03T16:45:09;14.60;56.70
21387;DHT22;10854;45.922;6.716;2023-04-03T16:47:37;14.60;56.90
21387;DHT22;10854;45.922;6.716;2023-04-03T16:50:06;14.50;56.50
21387;DHT22;10854;45.922;6.716;2023-04-03T16:52:34;14.30;56.70
21387;DHT22;10854;45.922;6.716;2023-04-03T16:55:04;14.00;56.60
21387;DHT22;10854;45.922;6.716;2023-04-03T16:57:32;13.80;56.90
21387;DHT22;10854;45.922;6.716;2023-04-03T17:00:04;13.70;57.40
21387;DHT22;10854;45.922;6.716;2023-04-03T17:02:33;13.60;57.70
21387;DHT22;10854;45.922;6.716;2023-04-03T17:05:01;13.50;57.80
21387;DHT22;10854;45.922;6.716;2023-04-03T17:07:30;13.40;58.00
21387;DHT22;10854;45.922;6.716;2023-04-03T17:10:00;13.20;57.80
21387;DHT22;10854;45.922;6.716;2023-04-03T17:12:28;13.10;57.90
21387;DHT22;10854;45.922;6.716;2023-04-03T17:14:57;13.00;58.50
21387;DHT22;10854;45.922;6.716;2023-04-03T17:17:26;12.90;58.50
21387;DHT22;10854;45.922;6.716;2023-04-03T17:19:55;12.80;58.50
21387;DHT22;10854;45.922;6.716;2023-04-03T17:22:23;12.30;59.80
21387;DHT22;10854;45.922;6.716;2023-04-03T17:24:52;11.80;60.20
21387;DHT22;10854;45.922;6.716;2023-04-03T17:27:20;11.20;61.70
21387;DHT22;10854;45.922;6.716;2023-04-03T17:29:49;10.80;63.00
21387;DHT22;10854;45.922;6.716;2023-04-03T17:32:17;10.50;64.80